Time;durP1;ratioP1;P1;durP2;ratioP2;P2;SDS_P1;SDS_P2;PMS_P1;PMS_P2;Temp;Humidity;BMP_temperature;BMP_pressure;BME280_temperature;BME280_humidity;BME280_pressure;Samples;Min_cycle;Max_cycle;Signal;HPM_P1;HPM_P2
2021/08/07 00:01:25;;;;;;;4.93;4.53;;;12.40;99.70;;;;;;4976053;28;20078;-73
2021/08/07 00:03:54;;;;;;;4.78;4.40;;;12.50;99.20;;;;;;4977191;28;20030;-72
2021/08/07 00:06:21;;;;;;;6.15;4.55;;;12.50;99.40;;;;;;4976142;28;20026;-72
2021/08/07 00:08:49;;;;;;;4.90;4.50;;;12.50;99.30;;;;;;4977182;28;20103;-72
2021/08/07 00:11:16;;;;;;;4.78;4.47;;;12.60;99.30;;;;;;4976773;28;20340;-74
2021/08/07 00:13:44;;;;;;;4.78;4.38;;;12.70;99.00;;;;;;4977143;28;20539;-73
2021/08/07 00:16:11;;;;;;;4.00;3.70;;;12.70;99.10;;;;;;4977231;28;20101;-71
2021/08/07 00:18:40;;;;;;;5.20;4.70;;;12.80;99.20;;;;;;4976910;28;20023;-72
2021/08/07 00:21:07;;;;;;;4.40;4.10;;;12.80;98.80;;;;;;4975576;28;20388;-72
2021/08/07 00:23:34;;;;;;;4.20;3.80;;;12.90;98.70;;;;;;4975439;28;20030;-72
2021/08/07 00:26:02;;;;;;;4.20;3.85;;;12.90;98.50;;;;;;4975396;28;20534;-73
2021/08/07 00:28:29;;;;;;;3.35;3.13;;;13.00;98.30;;;;;;4976865;28;20043;-71
2021/08/07 00:30:56;;;;;;;3.50;3.30;;;13.10;98.00;;;;;;4976806;28;20034;-71
2021/08/07 00:33:24;;;;;;;3.75;3.45;;;13.20;98.10;;;;;;4976852;28;20026;-71
2021/08/07 00:35:51;;;;;;;3.60;3.40;;;13.40;97.70;;;;;;4976803;28;20027;-72
2021/08/07 00:38:18;;;;;;;3.00;2.80;;;13.40;97.40;;;;;;4976530;28;20027;-71
2021/08/07 00:40:46;;;;;;;3.17;2.97;;;13.50;97.20;;;;;;4976713;28;20038;-72
2021/08/07 00:43:13;;;;;;;3.17;2.97;;;13.60;96.80;;;;;;4976570;28;20117;-72
2021/08/07 00:45:41;;;;;;;3.40;3.10;;;13.60;96.80;;;;;;4976382;28;20027;-71
2021/08/07 00:48:09;;;;;;;2.70;2.60;;;13.60;96.70;;;;;;4976400;28;20537;-71
2021/08/07 00:50:37;;;;;;;2.60;2.50;;;13.70;96.30;;;;;;4975370;28;20023;-72
2021/08/07 00:53:06;;;;;;;2.35;2.25;;;13.70;95.90;;;;;;4975010;28;20035;-71
2021/08/07 00:55:34;;;;;;;2.97;2.47;;;13.80;95.90;;;;;;4976356;28;20118;-71
2021/08/07 00:58:01;;;;;;;2.60;2.50;;;13.80;95.40;;;;;;4976303;28;20023;-74
2021/08/07 01:00:29;;;;;;;2.65;2.45;;;13.90;95.50;;;;;;4976234;28;20042;-71
2021/08/07 01:03:14;;;;;;;2.80;2.70;;;14.10;95.90;;;;;;4974746;28;20440;-74
2021/08/07 01:05:48;;;;;;;2.50;2.40;;;14.30;95.10;;;;;;4974644;28;20506;-72
2021/08/07 01:08:21;;;;;;;2.35;2.25;;;14.40;95.00;;;;;;4976036;28;20046;-73
2021/08/07 01:11:03;;;;;;;2.45;2.35;;;14.40;94.60;;;;;;4975874;28;20023;-72
2021/08/07 01:13:52;;;;;;;2.70;2.50;;;14.20;94.10;;;;;;4975544;28;20388;-72
2021/08/07 01:16:43;;;;;;;2.35;2.25;;;14.30;94.50;;;;;;4976040;28;20026;-74
2021/08/07 01:19:18;;;;;;;2.55;2.45;;;14.20;94.30;;;;;;4963168;28;20041;-71
2021/08/07 01:21:59;;;;;;;2.58;2.30;;;14.30;94.50;;;;;;4975621;28;20102;-74
2021/08/07 01:24:59;;;;;;;2.50;2.40;;;14.30;94.30;;;;;;4975511;28;20046;-71
2021/08/07 01:27:30;;;;;;;3.00;2.80;;;14.50;94.30;;;;;;4956984;28;20622;-74
2021/08/07 01:29:58;;;;;;;3.15;2.92;;;14.80;94.80;;;;;;4975524;28;20030;-74
2021/08/07 01:32:29;;;;;;;2.63;2.42;;;14.90;94.30;;;;;;4975417;28;20019;-73
2021/08/07 01:34:57;;;;;;;2.70;2.50;;;15.00;93.50;;;;;;4975258;28;20026;-74
2021/08/07 01:37:25;;;;;;;3.10;2.90;;;15.00;93.60;;;;;;4975390;28;20090;-72
2021/08/07 01:39:57;;;;;;;2.60;2.40;;;15.00;93.20;;;;;;4975264;28;20058;-73
2021/08/07 01:42:26;;;;;;;2.85;2.65;;;15.10;93.10;;;;;;4975311;28;20027;-73
2021/08/07 01:44:54;;;;;;;3.15;2.95;;;15.20;92.80;;;;;;4975208;28;20484;-74
2021/08/07 01:47:24;;;;;;;3.20;2.90;;;15.20;92.90;;;;;;4975197;28;20023;-73
2021/08/07 01:50:21;;;;;;;2.85;2.65;;;15.30;92.70;;;;;;4975480;28;20019;-72
2021/08/07 01:52:51;;;;;;;2.97;2.78;;;15.30;93.00;;;;;;4973503;28;20035;-74
2021/08/07 01:55:23;;;;;;;;;;;15.30;92.20;;;;;;4975641;28;20078;-73
2021/08/07 01:58:31;;;;;;;3.63;3.33;;;15.40;92.40;;;;;;4973874;28;19941;-74
2021/08/07 02:01:01;;;;;;;2.72;2.53;;;15.50;92.40;;;;;;4953607;28;20038;-72
2021/08/07 02:03:31;;;;;;;2.90;2.70;;;15.60;92.30;;;;;;4975059;28;20030;-73
2021/08/07 02:05:58;;;;;;;2.80;2.60;;;15.50;91.80;;;;;;4974986;28;20458;-73
2021/08/07 02:08:26;;;;;;;2.97;2.78;;;15.50;92.10;;;;;;4975032;28;20111;-73
2021/08/07 02:10:54;;;;;;;2.42;2.33;;;15.50;91.60;;;;;;4973470;28;20030;-74
2021/08/07 02:13:22;;;;;;;2.40;2.20;;;15.60;91.50;;;;;;4974790;28;20538;-71
2021/08/07 02:15:52;;;;;;;2.80;2.60;;;15.80;92.00;;;;;;4974822;28;20023;-73
2021/08/07 02:18:23;;;;;;;2.60;2.40;;;15.80;90.70;;;;;;4974761;28;20097;-73
2021/08/07 02:20:53;;;;;;;2.42;2.22;;;15.70;90.80;;;;;;4974114;28;20035;-73
2021/08/07 02:23:20;;;;;;;2.58;2.47;;;15.70;90.60;;;;;;4974712;28;20026;-74
2021/08/07 02:25:57;;;;;;;4.50;3.10;;;15.90;91.00;;;;;;4974701;28;20030;-73
2021/08/07 02:28:26;;;;;;;3.00;2.80;;;16.00;91.20;;;;;;4973458;28;20030;-73
2021/08/07 02:30:54;;;;;;;4.00;3.35;;;16.10;91.00;;;;;;4974580;28;20110;-75
2021/08/07 02:33:23;;;;;;;3.38;3.17;;;16.20;91.40;;;;;;4974659;28;20054;-73
2021/08/07 02:35:53;;;;;;;3.72;2.90;;;16.30;91.20;;;;;;4973123;28;20027;-77
2021/08/07 02:38:22;;;;;;;3.40;3.20;;;16.50;91.30;;;;;;4973546;28;20144;-77
2021/08/07 02:40:50;;;;;;;3.10;2.90;;;16.60;90.40;;;;;;4974398;28;20023;-77
2021/08/07 02:43:18;;;;;;;3.22;3.03;;;16.50;90.40;;;;;;4973088;28;20035;-76
2021/08/07 02:45:46;;;;;;;3.30;3.10;;;16.70;91.40;;;;;;4973766;28;20018;-76
2021/08/07 02:48:13;;;;;;;3.30;3.05;;;16.90;90.00;;;;;;4973178;28;20031;-75
2021/08/07 02:50:41;;;;;;;3.08;2.85;;;16.70;89.70;;;;;;4973007;28;20027;-76
2021/08/07 02:53:11;;;;;;;3.08;2.88;;;16.60;89.30;;;;;;4972993;28;20052;-76
2021/08/07 02:55:39;;;;;;;3.00;2.80;;;16.70;90.20;;;;;;4973046;28;20030;-76
2021/08/07 02:58:08;;;;;;;3.10;2.90;;;16.90;89.20;;;;;;4974305;28;20502;-76
2021/08/07 03:00:37;;;;;;;2.90;2.70;;;17.10;90.40;;;;;;4974442;28;20019;-76
2021/08/07 03:03:05;;;;;;;3.17;2.97;;;17.10;88.70;;;;;;4973922;28;20055;-76
2021/08/07 03:05:32;;;;;;;3.10;2.80;;;17.00;88.20;;;;;;4974233;28;20471;-76
2021/08/07 03:08:00;;;;;;;2.97;2.78;;;17.00;88.40;;;;;;4974185;28;20102;-75
2021/08/07 03:10:28;;;;;;;3.00;2.80;;;17.00;88.30;;;;;;4974145;28;20023;-75
2021/08/07 03:12:57;;;;;;;5.00;3.28;;;17.00;88.20;;;;;;4973847;28;20049;-75
2021/08/07 03:15:25;;;;;;;6.18;3.25;;;17.20;88.40;;;;;;4974247;28;20023;-74
2021/08/07 03:17:53;;;;;;;3.38;3.08;;;17.10;88.70;;;;;;4972662;28;20047;-76
2021/08/07 03:20:30;;;;;;;2.42;2.33;;;17.10;87.90;;;;;;4972679;28;20113;-74
2021/08/07 03:22:59;;;;;;;4.32;2.53;;;17.10;89.50;;;;;;4972415;28;20038;-76
2021/08/07 03:25:28;;;;;;;2.80;2.67;;;17.20;90.00;;;;;;4973997;28;20100;-76
2021/08/07 03:27:55;;;;;;;2.50;2.40;;;17.30;89.70;;;;;;4973992;28;20023;-75
2021/08/07 03:30:23;;;;;;;2.50;2.40;;;17.30;88.80;;;;;;4972792;28;20074;-75
2021/08/07 03:32:51;;;;;;;3.13;2.50;;;17.40;90.10;;;;;;4976237;28;20019;-75
2021/08/07 03:35:19;;;;;;;2.28;2.17;;;17.30;87.10;;;;;;4977960;28;20027;-75
2021/08/07 03:37:46;;;;;;;2.20;2.10;;;17.40;88.90;;;;;;4976709;28;20396;-76
2021/08/07 03:40:15;;;;;;;2.38;2.28;;;17.30;87.10;;;;;;4976439;28;20120;-76
2021/08/07 03:42:43;;;;;;;2.83;2.67;;;17.40;88.10;;;;;;4977791;28;20077;-76
2021/08/07 03:45:11;;;;;;;2.70;2.60;;;17.50;87.70;;;;;;4977708;28;20030;-76
2021/08/07 03:47:50;;;;;;;4.07;2.40;;;17.40;87.00;;;;;;4976652;28;20023;-75
2021/08/07 03:50:19;;;;;;;2.47;2.33;;;17.50;88.80;;;;;;4977701;28;21004;-75
2021/08/07 03:52:47;;;;;;;2.90;2.67;;;17.60;88.60;;;;;;4976219;28;20458;-75
2021/08/07 03:55:15;;;;;;;3.72;3.00;;;17.60;87.70;;;;;;4977640;28;20023;-75
2021/08/07 03:57:58;;;;;;;3.10;3.00;;;17.70;87.30;;;;;;4976354;28;20030;-76
2021/08/07 04:00:28;;;;;;;2.60;2.50;;;17.60;87.20;;;;;;4976198;28;20030;-76
2021/08/07 04:02:56;;;;;;;3.00;2.80;;;17.70;87.20;;;;;;4977592;28;20038;-74
2021/08/07 04:05:24;;;;;;;2.50;2.40;;;17.70;87.90;;;;;;4975940;28;20086;-74
2021/08/07 04:07:51;;;;;;;2.90;2.75;;;17.90;88.10;;;;;;4977499;28;20027;-74
2021/08/07 04:10:19;;;;;;;2.55;2.45;;;17.80;87.70;;;;;;4977322;28;20488;-75
2021/08/07 04:12:47;;;;;;;2.90;2.70;;;17.80;86.70;;;;;;4975725;28;20058;-77
2021/08/07 04:15:14;;;;;;;3.17;3.00;;;17.80;86.00;;;;;;4977289;28;20383;-74
2021/08/07 04:17:42;;;;;;;3.10;2.90;;;17.70;86.00;;;;;;4975799;28;20023;-75
2021/08/07 04:20:11;;;;;;;2.60;2.40;;;17.80;87.60;;;;;;4977029;28;20435;-75
2021/08/07 04:22:39;;;;;;;2.42;2.33;;;17.80;87.30;;;;;;4976973;28;20475;-76
2021/08/07 04:25:08;;;;;;;2.63;2.42;;;17.80;87.30;;;;;;4976773;28;20023;-75
2021/08/07 04:27:36;;;;;;;2.50;2.40;;;17.80;87.10;;;;;;4976908;28;20023;-75
2021/08/07 04:30:05;;;;;;;3.50;3.30;;;17.70;86.20;;;;;;4976859;28;20440;-75
2021/08/07 04:32:33;;;;;;;3.88;3.60;;;17.80;86.80;;;;;;4976755;28;20106;-76
2021/08/07 04:35:00;;;;;;;3.53;2.90;;;17.80;87.00;;;;;;4976803;28;20065;-75
2021/08/07 04:37:28;;;;;;;3.13;2.83;;;17.80;86.10;;;;;;4975581;28;20039;-73
2021/08/07 04:39:55;;;;;;;3.13;2.92;;;17.80;89.40;;;;;;4976757;28;20082;-75
2021/08/07 04:42:23;;;;;;;3.10;3.00;;;17.80;88.20;;;;;;4976826;28;20105;-75
2021/08/07 04:44:50;;;;;;;3.30;3.10;;;17.80;88.60;;;;;;4975824;28;20026;-75
2021/08/07 04:47:17;;;;;;;2.95;2.75;;;17.80;88.30;;;;;;4976519;28;20049;-75
2021/08/07 04:49:45;;;;;;;3.20;3.00;;;17.70;87.90;;;;;;4975198;28;20051;-77
2021/08/07 04:52:12;;;;;;;3.30;3.05;;;17.70;88.30;;;;;;4975068;28;20022;-76
2021/08/07 04:54:39;;;;;;;3.90;3.60;;;17.60;87.50;;;;;;4976475;28;20109;-77
2021/08/07 04:57:07;;;;;;;3.35;3.10;;;17.60;87.60;;;;;;4976482;28;20553;-77
2021/08/07 04:59:34;;;;;;;3.05;2.85;;;17.60;87.00;;;;;;4976471;28;20424;-79
2021/08/07 05:02:01;;;;;;;3.88;3.58;;;17.50;86.50;;;;;;4976442;28;20507;-78
2021/08/07 05:04:29;;;;;;;3.58;3.38;;;17.40;86.40;;;;;;4975647;28;20033;-78
2021/08/07 05:06:56;;;;;;;16.17;9.70;;;17.30;86.40;;;;;;4976363;28;20125;-77
2021/08/07 05:09:23;;;;;;;3.42;3.22;;;17.30;87.20;;;;;;4976295;28;20023;-77
2021/08/07 05:11:51;;;;;;;3.65;3.45;;;17.30;87.60;;;;;;4974562;28;20054;-75
2021/08/07 05:14:18;;;;;;;5.30;4.18;;;17.30;87.60;;;;;;4976228;28;20117;-75
2021/08/07 05:16:46;;;;;;;3.80;3.50;;;17.30;87.70;;;;;;4976230;28;20538;-76
2021/08/07 05:19:13;;;;;;;3.88;3.60;;;17.30;87.70;;;;;;4974951;28;20033;-75
2021/08/07 05:21:43;;;;;;;3.45;3.25;;;17.20;87.70;;;;;;4974796;28;20031;-75
2021/08/07 05:24:11;;;;;;;3.65;3.45;;;17.20;87.10;;;;;;4974752;28;20081;-75
2021/08/07 05:26:38;;;;;;;3.70;3.40;;;17.20;87.50;;;;;;4974702;28;20031;-74
2021/08/07 05:29:05;;;;;;;3.42;2.80;;;17.20;87.50;;;;;;4975982;28;20050;-74
2021/08/07 05:31:32;;;;;;;3.42;3.22;;;17.10;88.10;;;;;;4975947;28;20019;-75
2021/08/07 05:34:00;;;;;;;5.90;2.90;;;17.20;87.30;;;;;;4975839;28;20027;-76
2021/08/07 05:36:27;;;;;;;3.00;2.78;;;17.20;87.10;;;;;;4975722;28;20027;-75
2021/08/07 05:38:54;;;;;;;3.40;3.10;;;17.20;86.80;;;;;;4975775;28;20476;-75
2021/08/07 05:41:22;;;;;;;3.28;3.00;;;17.20;87.10;;;;;;4975553;28;20026;-74
2021/08/07 05:43:49;;;;;;;3.00;2.88;;;17.10;87.00;;;;;;4975515;28;20061;-75
2021/08/07 05:46:18;;;;;;;3.15;2.92;;;17.10;87.50;;;;;;4974461;28;20023;-75
2021/08/07 05:48:45;;;;;;;3.35;3.15;;;17.10;86.90;;;;;;4975594;28;20468;-75
2021/08/07 05:51:12;;;;;;;3.20;3.00;;;17.10;87.90;;;;;;4975469;28;20503;-75
2021/08/07 05:53:39;;;;;;;3.10;3.00;;;17.10;87.10;;;;;;4974008;28;20396;-75
2021/08/07 05:56:07;;;;;;;2.90;2.80;;;17.00;87.60;;;;;;4974203;28;20122;-74
2021/08/07 05:58:37;;;;;;;3.30;3.10;;;17.00;88.00;;;;;;4975221;28;20106;-73
2021/08/07 06:01:05;;;;;;;3.30;3.00;;;17.00;88.40;;;;;;4975273;28;20022;-74
2021/08/07 06:03:33;;;;;;;11.27;3.97;;;16.90;87.90;;;;;;4973656;28;20129;-74
2021/08/07 06:06:01;;;;;;;3.38;3.08;;;16.80;88.30;;;;;;4975181;28;20054;-75
2021/08/07 06:08:28;;;;;;;3.13;3.03;;;16.80;87.80;;;;;;4975115;28;20033;-75
2021/08/07 06:10:56;;;;;;;3.20;3.00;;;16.80;88.10;;;;;;4974792;28;20025;-75
2021/08/07 06:13:24;;;;;;;3.22;3.10;;;16.80;88.20;;;;;;4974956;28;20106;-75
2021/08/07 06:15:52;;;;;;;3.63;3.50;;;16.80;88.30;;;;;;4974886;28;20034;-75
2021/08/07 06:18:19;;;;;;;3.60;3.40;;;16.80;88.50;;;;;;4974896;28;20027;-75
2021/08/07 06:20:47;;;;;;;3.10;3.00;;;16.70;88.30;;;;;;4974816;28;20023;-75
2021/08/07 06:23:15;;;;;;;3.17;2.97;;;16.70;88.90;;;;;;4974693;28;20031;-74
2021/08/07 06:25:43;;;;;;;3.55;3.35;;;16.60;90.30;;;;;;4974826;28;20019;-74
2021/08/07 06:28:10;;;;;;;3.53;3.33;;;16.50;90.40;;;;;;4973333;28;20033;-75
2021/08/07 06:30:43;;;;;;;3.45;3.25;;;16.40;91.00;;;;;;4973591;28;20399;-75
2021/08/07 06:33:10;;;;;;;4.32;3.92;;;16.30;90.70;;;;;;4974798;28;20023;-76
2021/08/07 06:35:38;;;;;;;3.40;3.20;;;16.30;91.20;;;;;;4974635;28;20038;-76
2021/08/07 06:38:07;;;;;;;6.38;5.93;;;16.20;90.40;;;;;;4974541;28;20078;-76
2021/08/07 06:40:37;;;;;;;4.30;4.00;;;16.20;90.70;;;;;;4974497;28;20026;-75
2021/08/07 06:43:05;;;;;;;5.45;4.95;;;16.10;90.70;;;;;;4972994;28;20027;-75
2021/08/07 06:45:33;;;;;;;5.25;4.85;;;16.00;91.50;;;;;;4974446;28;20050;-76
2021/08/07 06:48:00;;;;;;;4.47;4.18;;;15.80;92.00;;;;;;4974409;28;20081;-75
2021/08/07 06:50:28;;;;;;;7.43;6.82;;;15.70;91.90;;;;;;4974423;28;20436;-74
2021/08/07 06:52:56;;;;;;;5.38;4.97;;;15.70;92.30;;;;;;4974207;28;20023;-75
2021/08/07 06:55:24;;;;;;;5.97;5.50;;;15.60;92.80;;;;;;4973029;28;20034;-76
2021/08/07 06:57:51;;;;;;;12.57;11.35;;;15.40;93.40;;;;;;4974197;28;20031;-75
2021/08/07 07:00:18;;;;;;;17.48;15.63;;;15.30;94.50;;;;;;4974248;28;20030;-76
2021/08/07 07:02:46;;;;;;;19.00;17.40;;;15.10;95.10;;;;;;4974502;28;20050;-76
2021/08/07 07:05:13;;;;;;;22.85;20.23;;;15.00;95.70;;;;;;4974079;28;20081;-75
2021/08/07 07:07:41;;;;;;;22.15;19.85;;;14.80;96.20;;;;;;4973696;28;20476;-75
2021/08/07 07:10:13;;;;;;;22.77;20.40;;;14.70;96.70;;;;;;4972721;28;20030;-76
2021/08/07 07:12:41;;;;;;;26.42;21.50;;;14.60;97.20;;;;;;4973932;28;20079;-74
2021/08/07 07:15:09;;;;;;;25.40;22.88;;;14.50;97.60;;;;;;4973955;28;20442;-75
2021/08/07 07:17:37;;;;;;;23.33;20.63;;;14.40;97.90;;;;;;4972746;28;20034;-74
2021/08/07 07:20:06;;;;;;;32.92;29.48;;;14.30;98.80;;;;;;4972556;28;20439;-74
2021/08/07 07:22:34;;;;;;;30.08;26.90;;;14.20;99.20;;;;;;4974012;28;20086;-74
2021/08/07 07:25:01;;;;;;;33.22;29.70;;;14.10;99.40;;;;;;4973952;28;20502;-75
2021/08/07 07:27:29;;;;;;;30.30;27.33;;;14.00;99.90;;;;;;4973915;28;20378;-74
2021/08/07 07:29:56;;;;;;;32.78;29.35;;;14.00;99.90;;;;;;4973850;28;20075;-74
2021/08/07 07:32:24;;;;;;;41.60;37.28;;;13.90;99.90;;;;;;4973679;28;20018;-73
2021/08/07 07:34:51;;;;;;;38.17;34.17;;;13.80;99.90;;;;;;4973861;28;20031;-75
2021/08/07 07:37:19;;;;;;;49.75;44.47;;;13.70;99.90;;;;;;4973908;28;20033;-74
2021/08/07 07:39:47;;;;;;;57.05;51.25;;;13.70;99.90;;;;;;4973819;28;20037;-74
2021/08/07 07:42:14;;;;;;;70.03;62.63;;;13.70;99.90;;;;;;4973717;28;20121;-75
2021/08/07 07:44:41;;;;;;;64.15;57.15;;;13.70;99.90;;;;;;4972258;28;20026;-76
2021/08/07 07:47:08;;;;;;;56.65;50.60;;;13.60;99.90;;;;;;4972318;28;20034;-74
2021/08/07 07:49:36;;;;;;;58.47;52.13;;;13.60;99.90;;;;;;4973698;28;20426;-74
2021/08/07 07:52:04;;;;;;;60.90;54.45;;;13.50;99.90;;;;;;4972350;28;20033;-74
2021/08/07 07:54:31;;;;;;;59.55;53.17;;;13.40;99.90;;;;;;4972604;28;20496;-74
2021/08/07 07:57:02;;;;;;;55.30;49.58;;;13.40;99.90;;;;;;4973914;28;20023;-74
2021/08/07 07:59:30;;;;;;;56.45;50.58;;;13.30;99.90;;;;;;4972328;28;20026;-74
2021/08/07 08:02:02;;;;;;;63.53;57.20;;;13.20;99.90;;;;;;4973782;28;20089;-75
2021/08/07 08:04:31;;;;;;;60.85;54.75;;;13.20;99.90;;;;;;4972322;28;20550;-74
2021/08/07 08:07:02;;;;;;;60.85;54.47;;;13.10;99.90;;;;;;4973630;28;20533;-75
2021/08/07 08:09:29;;;;;;;61.03;54.53;;;13.00;99.90;;;;;;4973515;28;20027;-75
2021/08/07 08:11:57;;;;;;;31.85;28.58;;;12.90;99.90;;;;;;4973314;28;20042;-75
2021/08/07 08:14:24;;;;;;;47.67;42.50;;;12.90;99.90;;;;;;4973501;28;20045;-75
2021/08/07 08:16:51;;;;;;;34.63;31.17;;;12.90;99.90;;;;;;4972015;28;20030;-75
2021/08/07 08:19:19;;;;;;;33.55;29.95;;;12.90;99.90;;;;;;4974821;28;20061;-75
2021/08/07 08:21:46;;;;;;;23.20;21.00;;;13.00;99.90;;;;;;4976024;28;20122;-77
2021/08/07 08:24:14;;;;;;;8.70;7.90;;;13.00;99.90;;;;;;4977145;28;20019;-75
2021/08/07 08:26:42;;;;;;;8.15;7.20;;;13.40;99.60;;;;;;4975545;28;20114;-75
2021/08/07 08:29:09;;;;;;;6.65;5.55;;;13.50;98.90;;;;;;4975550;28;20039;-75
2021/08/07 08:31:37;;;;;;;6.38;5.78;;;13.60;98.30;;;;;;4975733;28;20045;-78
2021/08/07 08:34:04;;;;;;;5.82;5.32;;;13.50;98.60;;;;;;4977203;28;20061;-77
2021/08/07 08:36:32;;;;;;;6.88;6.18;;;13.60;98.30;;;;;;4975570;28;20030;-78
2021/08/07 08:38:59;;;;;;;6.70;4.95;;;13.70;98.30;;;;;;4975700;28;20126;-77
2021/08/07 08:41:27;;;;;;;6.88;5.97;;;13.60;98.20;;;;;;4977134;28;20027;-79
2021/08/07 08:43:57;;;;;;;6.93;5.82;;;13.80;98.00;;;;;;4976954;28;20029;-76
2021/08/07 08:46:25;;;;;;;5.47;4.97;;;13.80;97.50;;;;;;4977026;28;20027;-75
2021/08/07 08:48:53;;;;;;;5.20;4.80;;;13.90;96.60;;;;;;4976734;28;20081;-76
2021/08/07 08:51:25;;;;;;;6.30;5.70;;;14.00;96.50;;;;;;4976676;28;20387;-76
2021/08/07 08:53:54;;;;;;;7.20;6.57;;;14.10;96.30;;;;;;4975403;28;20034;-76
2021/08/07 08:56:21;;;;;;;5.70;5.20;;;14.00;96.50;;;;;;4975300;28;20069;-76
2021/08/07 08:58:50;;;;;;;5.50;5.05;;;14.00;96.00;;;;;;4975392;28;20031;-77
2021/08/07 09:01:18;;;;;;;5.28;4.82;;;14.00;95.90;;;;;;4975811;28;20034;-78
2021/08/07 09:03:47;;;;;;;6.07;4.30;;;14.00;95.60;;;;;;4976451;28;20023;-78
2021/08/07 09:06:15;;;;;;;4.68;4.25;;;13.90;95.90;;;;;;4975158;28;20019;-77
2021/08/07 09:08:59;;;;;;;5.28;4.78;;;14.00;95.40;;;;;;4976513;28;20019;-78
2021/08/07 09:11:26;;;;;;;4.82;4.43;;;14.00;96.10;;;;;;4975132;28;20502;-78
2021/08/07 09:14:13;;;;;;;6.38;5.80;;;13.90;95.90;;;;;;4975279;28;20054;-77
2021/08/07 09:17:01;;;;;;;7.30;6.30;;;13.80;95.90;;;;;;4927664;28;20038;-77
2021/08/07 09:19:41;;;;;;;4.78;4.38;;;13.70;96.50;;;;;;4963691;28;20034;-78
2021/08/07 09:22:11;;;;;;;4.75;4.20;;;13.50;96.40;;;;;;4974869;28;20027;-78
2021/08/07 09:24:54;;;;;;;6.43;5.82;;;13.60;96.10;;;;;;4976338;28;20113;-76
2021/08/07 09:27:47;;;;;;;4.30;3.90;;;13.40;96.90;;;;;;4976102;28;20044;-75
2021/08/07 09:30:17;;;;;;;4.50;3.85;;;13.40;96.60;;;;;;4975905;28;20446;-80
2021/08/07 09:33:02;;;;;;;4.60;4.28;;;13.40;96.10;;;;;;4976462;28;20015;-80
2021/08/07 09:35:38;;;;;;;4.00;3.70;;;13.40;96.10;;;;;;4975858;28;20023;-78
2021/08/07 09:38:16;;;;;;;3.85;3.50;;;13.30;96.00;;;;;;4974584;28;20031;-78
2021/08/07 09:40:44;;;;;;;4.07;3.67;;;13.30;95.90;;;;;;4974407;28;20027;-79
2021/08/07 09:43:14;;;;;;;4.43;3.75;;;13.30;96.30;;;;;;4975791;28;20019;-77
2021/08/07 09:45:42;;;;;;;3.50;3.20;;;13.20;96.40;;;;;;4974287;28;20076;-77
2021/08/07 09:48:18;;;;;;;3.40;3.20;;;13.20;96.10;;;;;;4975667;28;20027;-80
2021/08/07 09:50:45;;;;;;;4.10;3.10;;;13.10;96.40;;;;;;4974317;28;20031;-77
2021/08/07 09:53:20;;;;;;;3.58;3.13;;;13.10;96.50;;;;;;4974225;28;20045;-78
2021/08/07 09:56:08;;;;;;;2.70;2.50;;;13.00;96.60;;;;;;4975401;28;20027;-76
2021/08/07 09:58:36;;;;;;;2.58;2.38;;;13.00;96.40;;;;;;4974134;28;20023;-78
2021/08/07 10:01:04;;;;;;;3.22;3.03;;;13.00;96.40;;;;;;4975284;28;20113;-79
2021/08/07 10:03:32;;;;;;;4.15;3.38;;;12.90;96.70;;;;;;4973845;28;20034;-74
2021/08/07 10:06:32;;;;;;;2.95;2.75;;;12.90;96.80;;;;;;4975357;28;20035;-74
2021/08/07 10:09:00;;;;;;;3.20;2.88;;;12.90;96.80;;;;;;4922651;28;20480;-77
2021/08/07 10:11:29;;;;;;;2.53;2.33;;;12.80;96.80;;;;;;4973816;28;20039;-76
2021/08/07 10:13:56;;;;;;;3.65;3.00;;;12.70;97.00;;;;;;4973941;28;20038;-75
2021/08/07 10:16:24;;;;;;;4.20;3.80;;;12.60;97.50;;;;;;4973860;28;20035;-75
2021/08/07 10:18:53;;;;;;;3.67;3.33;;;12.50;97.90;;;;;;4974935;28;20074;-75
2021/08/07 10:21:22;;;;;;;4.68;3.00;;;12.50;97.60;;;;;;4974994;28;20390;-75
2021/08/07 10:23:53;;;;;;;3.00;2.53;;;12.50;97.50;;;;;;4974872;28;20022;-77
2021/08/07 10:26:23;;;;;;;2.83;2.63;;;12.50;97.70;;;;;;4974849;28;20023;-77
2021/08/07 10:28:57;;;;;;;3.13;2.90;;;12.40;97.80;;;;;;4973467;28;20097;-77
2021/08/07 10:31:26;;;;;;;3.00;2.80;;;12.30;97.80;;;;;;4973590;28;20077;-75
2021/08/07 10:33:58;;;;;;;3.08;2.88;;;12.30;97.90;;;;;;4974706;28;20035;-75
2021/08/07 10:36:27;;;;;;;3.00;2.80;;;12.20;98.60;;;;;;4974649;28;20026;-76
2021/08/07 10:38:54;;;;;;;3.00;2.70;;;12.20;98.20;;;;;;4973345;28;20117;-74
2021/08/07 10:41:27;;;;;;;3.20;3.00;;;12.20;98.60;;;;;;4974291;28;20030;-75
2021/08/07 10:43:56;;;;;;;2.83;2.63;;;12.20;98.20;;;;;;4974718;28;20030;-75
2021/08/07 10:46:24;;;;;;;3.55;2.80;;;12.30;97.90;;;;;;4973226;28;20077;-73
2021/08/07 10:48:53;;;;;;;3.10;2.90;;;12.30;98.10;;;;;;4974485;28;20365;-75
2021/08/07 10:51:20;;;;;;;3.40;3.20;;;12.30;97.90;;;;;;4974422;28;20038;-75
2021/08/07 10:53:53;;;;;;;3.20;3.00;;;12.20;98.30;;;;;;4973111;28;20034;-75
2021/08/07 10:56:43;;;;;;;3.05;2.80;;;12.10;98.20;;;;;;4974364;28;20546;-75
2021/08/07 10:59:11;;;;;;;3.17;2.97;;;12.20;98.00;;;;;;4972845;28;20431;-76
2021/08/07 11:01:39;;;;;;;2.92;2.72;;;12.20;98.00;;;;;;4974379;28;20034;-76
2021/08/07 11:04:09;;;;;;;3.00;2.75;;;12.30;98.00;;;;;;4974005;28;20106;-76
2021/08/07 11:06:39;;;;;;;2.60;2.40;;;12.30;97.90;;;;;;4974357;28;20096;-78
2021/08/07 11:09:31;;;;;;;3.22;3.03;;;12.40;97.90;;;;;;4972676;28;20030;-73
2021/08/07 11:12:18;;;;;;;2.80;2.63;;;12.50;97.90;;;;;;4972883;28;20142;-74
2021/08/07 11:14:48;;;;;;;3.00;2.90;;;12.60;97.70;;;;;;4972770;28;20030;-75
2021/08/07 11:17:15;;;;;;;3.00;2.80;;;12.70;97.30;;;;;;4974177;28;20026;-74
2021/08/07 11:20:05;;;;;;;2.95;2.78;;;12.70;97.70;;;;;;4973946;28;20030;-74
2021/08/07 11:22:34;;;;;;;2.75;2.65;;;12.70;97.30;;;;;;4974123;28;20034;-77
2021/08/07 11:25:21;;;;;;;2.60;2.50;;;12.70;97.40;;;;;;4972565;28;20037;-76
2021/08/07 11:27:58;;;;;;;2.80;2.60;;;12.80;97.00;;;;;;4974133;28;20030;-78
2021/08/07 11:30:32;;;;;;;2.97;2.83;;;12.80;97.10;;;;;;4972771;28;20109;-76
2021/08/07 11:33:00;;;;;;;2.90;2.80;;;12.80;97.10;;;;;;4972559;28;20050;-77
2021/08/07 11:35:34;;;;;;;3.20;3.00;;;12.80;97.00;;;;;;4973909;28;20106;-78
2021/08/07 11:40:38;;;;;;;3.13;3.03;;;12.70;97.10;;;;;;4974473;28;20110;-77
2021/08/07 11:43:26;;;;;;;2.90;2.70;;;12.70;97.10;;;;;;4972590;28;20122;-74
2021/08/07 11:46:00;;;;;;;3.55;3.35;;;12.50;97.20;;;;;;4973645;28;20049;-74
2021/08/07 11:48:58;;;;;;;3.22;3.03;;;12.60;97.30;;;;;;4972399;28;20027;-75
2021/08/07 11:51:27;;;;;;;3.05;2.95;;;12.60;97.30;;;;;;4953871;28;20086;-75
2021/08/07 11:53:55;;;;;;;3.20;3.10;;;12.60;97.30;;;;;;4974530;28;20031;-74
2021/08/07 11:56:25;;;;;;;2.88;2.78;;;12.50;97.50;;;;;;4976365;28;20057;-77
2021/08/07 11:58:55;;;;;;;3.28;3.08;;;12.50;97.40;;;;;;4976197;28;20023;-77
2021/08/07 12:01:28;;;;;;;3.13;2.95;;;12.40;98.20;;;;;;4977598;28;20031;-76
2021/08/07 12:03:57;;;;;;;3.55;3.30;;;12.40;97.70;;;;;;4977428;28;20038;-78
2021/08/07 12:06:47;;;;;;;3.28;3.10;;;12.40;97.70;;;;;;4976220;28;20023;-78
2021/08/07 12:09:20;;;;;;;3.10;2.90;;;12.40;98.10;;;;;;4976114;28;20022;-77
2021/08/07 12:11:49;;;;;;;3.30;3.10;;;12.40;97.60;;;;;;4975693;28;20106;-78
2021/08/07 12:14:26;;;;;;;3.25;3.05;;;12.40;97.60;;;;;;4977337;28;20105;-75
2021/08/07 12:16:54;;;;;;;3.00;2.90;;;12.40;97.90;;;;;;4977351;28;20023;-75
2021/08/07 12:19:24;;;;;;;2.70;2.60;;;12.40;97.80;;;;;;4977192;28;20109;-74
2021/08/07 12:21:52;;;;;;;3.30;3.10;;;12.40;97.70;;;;;;4977449;28;20019;-75
2021/08/07 12:24:24;;;;;;;2.90;2.70;;;12.40;97.70;;;;;;4975641;28;20059;-76
2021/08/07 12:26:57;;;;;;;2.83;2.70;;;12.40;97.60;;;;;;4977017;28;20030;-78
2021/08/07 12:29:30;;;;;;;3.20;3.10;;;12.30;97.70;;;;;;4977339;28;20110;-76
2021/08/07 12:32:03;;;;;;;3.00;2.90;;;12.30;97.90;;;;;;4975706;28;20031;-77
2021/08/07 12:34:33;;;;;;;3.20;3.00;;;12.20;97.60;;;;;;4975625;28;20031;-76
2021/08/07 12:37:07;;;;;;;3.37;3.17;;;12.20;97.70;;;;;;4976769;28;20031;-75
2021/08/07 12:39:48;;;;;;;3.72;3.45;;;12.20;97.70;;;;;;4975542;28;20264;-76
2021/08/07 12:42:19;;;;;;;3.08;2.97;;;12.10;97.90;;;;;;4976881;28;20093;-75
2021/08/07 12:45:07;;;;;;;3.42;3.22;;;12.10;98.00;;;;;;4976709;28;20078;-75
2021/08/07 12:47:35;;;;;;;3.20;3.10;;;12.10;98.00;;;;;;4977011;28;20502;-81
2021/08/07 12:50:18;;;;;;;3.33;3.08;;;12.10;98.00;;;;;;4976827;28;20031;-76
2021/08/07 12:53:01;;;;;;;3.35;3.25;;;12.00;98.00;;;;;;4975725;28;20042;-79
2021/08/07 12:55:31;;;;;;;3.20;3.00;;;12.00;98.20;;;;;;4977757;28;20022;-75
2021/08/07 12:58:21;;;;;;;3.08;2.95;;;11.90;98.30;;;;;;4976907;28;20502;-79
2021/08/07 13:00:50;;;;;;;3.63;3.42;;;11.90;98.40;;;;;;4975088;28;20034;-75
2021/08/07 13:03:17;;;;;;;3.13;3.00;;;11.70;98.50;;;;;;4975004;28;20486;-77
2021/08/07 13:05:47;;;;;;;3.88;3.67;;;11.80;98.50;;;;;;4976088;28;20027;-78